createdAt,value
2023-04-16T00:00:42.382Z,80.97
2023-04-16T00:03:10.001Z,81.98
2023-04-16T00:05:37.571Z,81.33
2023-04-16T00:08:05.023Z,82.12
2023-04-16T00:10:32.523Z,81.69
2023-04-16T00:12:59.954Z,81.63
2023-04-16T00:15:28.755Z,81.28
2023-04-16T00:17:56.270Z,81.46
2023-04-16T00:20:23.785Z,81.27
2023-04-16T00:22:52.077Z,81.24
2023-04-16T00:25:19.500Z,81.36
2023-04-16T00:27:46.932Z,81.20
2023-04-16T00:30:14.882Z,81.56
2023-04-16T00:32:43.728Z,80.93
2023-04-16T00:35:11.227Z,80.69
2023-04-16T00:37:38.661Z,81.25
2023-04-16T00:40:07.403Z,80.94
2023-04-16T00:42:34.882Z,80.35
2023-04-16T00:45:02.341Z,81.16
2023-04-16T00:47:30.053Z,80.63
2023-04-16T00:49:58.861Z,81.37
2023-04-16T00:52:26.756Z,81.30
2023-04-16T00:54:54.913Z,82.03
2023-04-16T00:57:23.825Z,80.84
2023-04-16T00:59:51.521Z,80.96
2023-04-16T01:02:19.146Z,81.37
2023-04-16T01:04:46.739Z,80.34
2023-04-16T01:07:15.659Z,80.49
2023-04-16T01:09:43.124Z,80.65
2023-04-16T01:12:10.547Z,80.64
2023-04-16T01:14:38.016Z,80.54
2023-04-16T01:17:05.531Z,81.25
2023-04-16T01:19:36.092Z,81.32
2023-04-16T01:22:05.614Z,80.92
2023-04-16T01:24:33.087Z,80.53
2023-04-16T01:27:00.536Z,80.73
2023-04-16T01:29:28.346Z,80.56
2023-04-16T01:31:55.786Z,81.45
2023-04-16T01:34:23.215Z,81.68
2023-04-16T01:36:51.084Z,82.46
2023-04-16T01:39:19.978Z,81.64
2023-04-16T01:41:47.473Z,81.39
2023-04-16T01:44:14.993Z,82.17
2023-04-16T01:46:42.535Z,82.13
2023-04-16T01:49:10.375Z,81.44
2023-04-16T01:51:37.985Z,81.53
2023-04-16T01:54:05.670Z,82.68
2023-04-16T01:56:34.511Z,82.19
2023-04-16T01:59:01.984Z,81.69
2023-04-16T02:01:30.310Z,81.23
2023-04-16T02:03:58.299Z,81.39
2023-04-16T02:06:25.974Z,82.23
2023-04-16T02:08:53.458Z,81.11
2023-04-16T02:11:21.979Z,81.67
2023-04-16T02:13:50.859Z,81.69
2023-04-16T02:16:18.374Z,81.80
2023-04-16T02:18:45.930Z,81.44
2023-04-16T02:21:13.860Z,80.54
2023-04-16T02:23:41.660Z,81.78
2023-04-16T02:26:09.217Z,81.36
2023-04-16T02:28:36.705Z,81.33
2023-04-16T02:31:05.703Z,82.23
2023-04-16T02:33:33.175Z,82.13
2023-04-16T02:36:00.731Z,81.90
2023-04-16T02:38:28.237Z,80.94
2023-04-16T02:40:55.691Z,82.37
2023-04-16T02:43:23.089Z,81.92
2023-04-16T02:45:50.555Z,81.04
2023-04-16T02:48:19.343Z,80.91
2023-04-16T02:50:46.803Z,80.44
2023-04-16T02:53:14.244Z,80.06
2023-04-16T02:55:41.684Z,80.77
2023-04-16T02:58:09.117Z,81.30
2023-04-16T03:00:36.827Z,81.63
2023-04-16T03:03:04.505Z,81.02
2023-04-16T03:05:33.658Z,80.61
2023-04-16T03:08:01.129Z,80.71
2023-04-16T03:10:28.533Z,81.73
2023-04-16T03:12:55.967Z,81.13
2023-04-16T03:15:23.474Z,80.61
2023-04-16T03:17:51.094Z,81.91
2023-04-16T03:20:19.064Z,81.76
2023-04-16T03:22:48.295Z,81.68
2023-04-16T03:25:15.833Z,81.35
2023-04-16T03:27:43.270Z,81.16
2023-04-16T03:30:13.067Z,80.90
2023-04-16T03:32:40.925Z,80.84
2023-04-16T03:35:09.644Z,80.24
2023-04-16T03:37:37.172Z,81.19
2023-04-16T03:40:07.065Z,80.19
2023-04-16T03:42:34.571Z,80.06
2023-04-16T03:45:01.999Z,81.36
2023-04-16T03:47:29.516Z,80.13
2023-04-16T03:49:56.970Z,80.71
2023-04-16T03:52:24.446Z,80.65
2023-04-16T03:54:52.119Z,81.03
2023-04-16T03:57:20.918Z,80.16
2023-04-16T03:59:48.354Z,80.79
2023-04-16T04:02:16.006Z,80.36
2023-04-16T04:04:43.633Z,80.09
2023-04-16T04:07:11.149Z,79.81
2023-04-16T04:09:38.686Z,79.58
2023-04-16T04:12:06.172Z,79.55
2023-04-16T04:14:39.579Z,80.35
2023-04-16T04:17:07.127Z,80.12
2023-04-16T04:19:34.681Z,79.60
2023-04-16T04:22:02.178Z,80.17
2023-04-16T04:24:29.669Z,80.58
2023-04-16T04:26:57.290Z,80.13
2023-04-16T04:29:24.779Z,80.96
2023-04-16T04:31:55.117Z,80.30
2023-04-16T04:34:22.653Z,80.87
2023-04-16T04:36:50.150Z,79.86
2023-04-16T04:39:17.770Z,80.25
2023-04-16T04:41:45.257Z,80.14
2023-04-16T04:44:12.732Z,80.04
2023-04-16T04:46:40.606Z,80.55
2023-04-16T04:49:09.525Z,80.23
2023-04-16T04:51:37.198Z,80.48
2023-04-16T04:54:04.763Z,80.41
2023-04-16T04:56:32.193Z,79.73
2023-04-16T04:58:59.618Z,79.27
2023-04-16T05:01:27.090Z,80.00
2023-04-16T05:03:54.607Z,80.23
2023-04-16T05:06:23.463Z,80.15
2023-04-16T05:08:50.861Z,79.63
2023-04-16T05:11:18.302Z,79.74
2023-04-16T05:13:45.762Z,79.19
2023-04-16T05:16:13.255Z,79.34
2023-04-16T05:18:40.727Z,79.80
2023-04-16T05:21:08.160Z,79.84
2023-04-16T05:23:36.937Z,80.10
2023-04-16T05:26:04.431Z,79.35
2023-04-16T05:28:32.148Z,79.28
2023-04-16T05:30:59.623Z,79.24
2023-04-16T05:33:27.080Z,78.74
2023-04-16T05:35:54.518Z,79.88
2023-04-16T05:38:21.986Z,80.08
2023-04-16T05:40:50.805Z,80.11
2023-04-16T05:43:18.917Z,79.18
2023-04-16T05:45:46.481Z,79.67
2023-04-16T05:48:13.947Z,78.79
2023-04-16T05:50:41.377Z,79.29
2023-04-16T05:53:09.779Z,79.03
2023-04-16T05:55:37.577Z,78.15
2023-04-16T05:58:06.426Z,79.68
2023-04-16T06:00:34.412Z,79.03
2023-04-16T06:03:03.002Z,79.31
2023-04-16T06:05:30.797Z,78.46
2023-04-16T06:07:58.262Z,78.79
2023-04-16T06:10:25.767Z,78.42
2023-04-16T06:12:53.273Z,78.50
2023-04-16T06:15:22.097Z,79.89
2023-04-16T06:17:50.311Z,78.75
2023-04-16T06:20:17.948Z,79.91
2023-04-16T06:22:45.386Z,79.63
2023-04-16T06:25:12.860Z,79.03
2023-04-16T06:27:40.280Z,80.17
2023-04-16T06:30:13.280Z,79.82
2023-04-16T06:32:43.015Z,79.46
2023-04-16T06:35:10.837Z,79.28
2023-04-16T06:37:38.294Z,79.68
2023-04-16T06:40:06.698Z,79.27
2023-04-16T06:42:34.210Z,78.48
2023-04-16T06:45:02.127Z,78.76
2023-04-16T06:47:29.712Z,78.91
2023-04-16T06:49:58.578Z,78.37
2023-04-16T06:52:26.161Z,78.63
2023-04-16T06:54:53.591Z,78.76
2023-04-16T06:57:21.032Z,78.17
2023-04-16T06:59:48.502Z,78.42
2023-04-16T07:02:16.139Z,78.02
2023-04-16T07:04:43.635Z,77.58
2023-04-16T07:07:12.441Z,78.44
2023-04-16T07:09:39.938Z,78.56
2023-04-16T07:12:08.060Z,78.38
2023-04-16T07:14:35.615Z,77.58
2023-04-16T07:17:03.295Z,77.31
2023-04-16T07:19:32.524Z,77.12
2023-04-16T07:21:59.977Z,77.92
2023-04-16T07:24:28.762Z,75.89
2023-04-16T07:26:56.232Z,76.15
2023-04-16T07:29:23.778Z,77.13
2023-04-16T07:31:51.349Z,76.34
2023-04-16T07:34:18.946Z,77.24
2023-04-16T07:36:46.395Z,76.78
2023-04-16T07:39:13.858Z,76.30
2023-04-16T07:41:42.920Z,75.82
2023-04-16T07:44:10.562Z,77.94
2023-04-16T07:46:46.224Z,76.38
2023-04-16T07:49:15.372Z,77.10
2023-04-16T07:51:43.015Z,76.48
2023-04-16T07:54:11.487Z,76.17
2023-04-16T07:56:39.093Z,76.14
2023-04-16T07:59:19.069Z,76.94
2023-04-16T08:01:50.894Z,76.54
2023-04-16T08:04:24.274Z,76.02
2023-04-16T08:06:52.521Z,75.99
2023-04-16T08:09:20.457Z,76.97
2023-04-16T08:11:49.092Z,76.22
2023-04-16T08:14:18.182Z,75.37
2023-04-16T08:16:45.784Z,75.08
2023-04-16T08:19:13.492Z,75.88
2023-04-16T08:21:41.303Z,75.26
2023-04-16T08:24:08.967Z,76.53
2023-04-16T08:26:36.561Z,75.59
2023-04-16T08:29:04.056Z,74.95
2023-04-16T08:31:33.112Z,75.38
2023-04-16T08:34:01.277Z,75.03
2023-04-16T08:36:28.749Z,74.52
2023-04-16T08:38:56.244Z,73.79
2023-04-16T08:41:25.847Z,73.69
2023-04-16T08:43:56.274Z,74.85
2023-04-16T08:46:26.518Z,74.04
2023-04-16T08:48:56.661Z,73.89
2023-04-16T08:51:24.919Z,74.33
2023-04-16T08:53:54.118Z,74.89
2023-04-16T08:56:23.972Z,75.31
2023-04-16T08:58:52.590Z,73.97
2023-04-16T09:01:20.815Z,74.46
2023-04-16T09:03:49.759Z,73.50
2023-04-16T09:06:18.781Z,73.15
2023-04-16T09:08:46.584Z,72.80
2023-04-16T09:11:15.229Z,72.07
2023-04-16T09:13:42.738Z,72.38
2023-04-16T09:16:11.855Z,71.81
2023-04-16T09:18:39.404Z,72.35
2023-04-16T09:21:07.702Z,73.35
2023-04-16T09:23:38.569Z,73.45
2023-04-16T09:26:06.632Z,72.07
2023-04-16T09:28:40.907Z,72.19
2023-04-16T09:31:09.993Z,72.80
2023-04-16T09:33:37.493Z,72.91
2023-04-16T09:36:06.524Z,72.91
2023-04-16T09:38:52.309Z,71.47
2023-04-16T09:41:20.536Z,72.49
2023-04-16T09:43:56.400Z,71.67
2023-04-16T09:46:24.607Z,71.82
2023-04-16T09:48:52.146Z,71.39
2023-04-16T09:51:19.643Z,70.97
2023-04-16T09:53:47.147Z,72.19
2023-04-16T09:56:15.960Z,71.60
2023-04-16T09:58:43.419Z,71.06
2023-04-16T10:01:12.859Z,71.58
2023-04-16T10:03:41.883Z,72.45
2023-04-16T10:06:15.611Z,72.28
2023-04-16T10:08:44.679Z,71.43
2023-04-16T10:11:12.204Z,71.94
2023-04-16T10:13:41.128Z,71.32
2023-04-16T10:16:09.408Z,71.41
2023-04-16T10:18:38.090Z,71.13
2023-04-16T10:21:06.510Z,70.31
2023-04-16T10:23:34.440Z,72.03
2023-04-16T10:26:02.807Z,71.39
2023-04-16T10:28:31.211Z,69.63
2023-04-16T10:31:01.020Z,69.48
2023-04-16T10:33:31.167Z,69.11
2023-04-16T10:36:10.319Z,68.42
2023-04-16T10:38:40.935Z,67.82
2023-04-16T10:41:09.592Z,68.37
2023-04-16T10:43:41.915Z,67.00
2023-04-16T10:46:21.668Z,67.06
2023-04-16T10:48:51.030Z,67.22
2023-04-16T10:51:27.770Z,67.09
2023-04-16T10:53:56.064Z,64.89
2023-04-16T10:56:24.605Z,65.60
2023-04-16T10:58:54.251Z,66.42
2023-04-16T11:01:31.435Z,65.60
2023-04-16T11:04:01.880Z,65.54
2023-04-16T11:06:31.900Z,65.79
2023-04-16T11:08:59.389Z,65.93
2023-04-16T11:11:28.311Z,64.28
2023-04-16T11:13:59.011Z,63.36
2023-04-16T11:16:28.137Z,64.20
2023-04-16T11:18:57.085Z,63.28
2023-04-16T11:21:25.328Z,62.44
2023-04-16T11:23:54.180Z,64.20
2023-04-16T11:26:24.801Z,62.07
2023-04-16T11:28:52.534Z,62.75
2023-04-16T11:31:20.067Z,61.91
2023-04-16T11:33:48.914Z,61.86
2023-04-16T11:36:16.509Z,61.05
2023-04-16T11:38:43.960Z,61.14
2023-04-16T11:41:11.919Z,61.68
2023-04-16T11:43:39.385Z,61.05
2023-04-16T11:46:16.211Z,60.02
2023-04-16T11:48:50.250Z,59.80
2023-04-16T11:51:18.071Z,60.82
2023-04-16T11:53:53.407Z,60.80
2023-04-16T11:56:28.421Z,60.99
2023-04-16T11:59:10.000Z,60.28
2023-04-16T12:01:39.141Z,60.99
2023-04-16T12:04:09.200Z,61.49
2023-04-16T12:06:37.151Z,62.50
2023-04-16T12:09:25.886Z,62.50
2023-04-16T12:11:53.987Z,63.15
2023-04-16T12:14:21.783Z,61.39
2023-04-16T12:16:49.507Z,61.81
2023-04-16T12:19:18.827Z,61.59
2023-04-16T12:21:48.292Z,63.43
2023-04-16T12:24:20.522Z,62.51
2023-04-16T12:26:52.779Z,61.78
2023-04-16T12:29:21.980Z,62.56
2023-04-16T12:31:50.392Z,62.39
2023-04-16T12:34:20.855Z,63.43
2023-04-16T12:36:50.151Z,61.67
2023-04-16T12:39:17.624Z,60.87
2023-04-16T12:41:45.748Z,60.99
2023-04-16T12:44:17.808Z,60.75
2023-04-16T12:46:46.236Z,60.94
2023-04-16T12:49:13.976Z,62.26
2023-04-16T12:51:42.820Z,62.16
2023-04-16T12:54:10.484Z,61.51
2023-04-16T12:56:38.292Z,61.06
2023-04-16T12:59:05.768Z,61.61
2023-04-16T13:01:36.006Z,61.14
2023-04-16T13:04:03.798Z,60.04
2023-04-16T13:06:32.537Z,59.70
2023-04-16T13:09:01.393Z,59.21
2023-04-16T13:11:28.924Z,59.24
2023-04-16T13:13:56.400Z,58.30
2023-04-16T13:16:23.906Z,59.37
2023-04-16T13:18:51.491Z,57.98
2023-04-16T13:21:18.963Z,58.60
2023-04-16T13:23:48.944Z,58.18
2023-04-16T13:26:17.805Z,59.12
2023-04-16T13:28:45.265Z,60.28
2023-04-16T13:31:12.967Z,59.08
2023-04-16T13:33:40.742Z,60.04
2023-04-16T13:36:08.321Z,60.35
2023-04-16T13:38:35.876Z,59.65
2023-04-16T13:41:03.334Z,58.74
2023-04-16T13:43:32.107Z,58.45
2023-04-16T13:46:00.849Z,58.06
2023-04-16T13:48:29.236Z,59.47
2023-04-16T13:50:56.893Z,59.24
2023-04-16T13:53:24.336Z,59.90
2023-04-16T13:55:51.842Z,58.70
2023-04-16T13:58:19.334Z,58.46
2023-04-16T14:00:48.224Z,59.04
2023-04-16T14:03:15.838Z,59.68
2023-04-16T14:05:43.723Z,61.45
2023-04-16T14:08:12.903Z,58.86
2023-04-16T14:10:40.570Z,59.29
2023-04-16T14:13:08.094Z,59.43
2023-04-16T14:15:35.991Z,60.41
2023-04-16T14:18:05.172Z,59.95
2023-04-16T14:20:32.968Z,59.65
2023-04-16T14:23:00.423Z,60.75
2023-04-16T14:25:27.986Z,58.46
2023-04-16T14:27:55.974Z,60.21
2023-04-16T14:30:23.498Z,59.45
2023-04-16T14:32:51.069Z,57.48
2023-04-16T14:35:20.268Z,59.16
2023-04-16T14:37:47.831Z,57.73
2023-04-16T14:40:15.351Z,58.07
2023-04-16T14:42:42.840Z,57.42
2023-04-16T14:45:11.012Z,58.17
2023-04-16T14:47:45.404Z,58.05
2023-04-16T14:50:14.670Z,58.68
2023-04-16T14:52:43.512Z,58.44
2023-04-16T14:55:10.992Z,58.04
2023-04-16T14:57:38.947Z,57.60
2023-04-16T15:00:09.679Z,59.26
2023-04-16T15:02:37.694Z,58.38
2023-04-16T15:05:07.711Z,57.98
2023-04-16T15:07:35.147Z,58.83
2023-04-16T15:10:04.823Z,58.28
2023-04-16T15:12:32.372Z,58.55
2023-04-16T15:15:00.333Z,59.15
2023-04-16T15:17:27.960Z,57.94
2023-04-16T15:19:55.531Z,58.54
2023-04-16T15:22:23.105Z,60.09
2023-04-16T15:24:50.660Z,57.92
2023-04-16T15:27:20.418Z,57.63
2023-04-16T15:29:49.303Z,56.93
2023-04-16T15:32:16.774Z,58.98
2023-04-16T15:34:44.399Z,57.87
2023-04-16T15:37:11.855Z,57.97
2023-04-16T15:39:39.500Z,57.94
2023-04-16T15:42:07.691Z,56.84
2023-04-16T15:44:36.532Z,57.06
2023-04-16T15:47:06.143Z,56.93
2023-04-16T15:49:33.635Z,56.63
2023-04-16T15:52:01.438Z,58.27
2023-04-16T15:54:30.133Z,58.39
2023-04-16T15:56:58.550Z,59.46
2023-04-16T15:59:26.159Z,56.90
2023-04-16T16:01:55.094Z,57.79
2023-04-16T16:04:23.338Z,57.56
2023-04-16T16:06:51.628Z,57.21
2023-04-16T16:09:25.412Z,57.61
2023-04-16T16:11:54.019Z,56.34
2023-04-16T16:14:21.820Z,58.31
2023-04-16T16:16:49.560Z,57.29
2023-04-16T16:19:18.638Z,56.72
2023-04-16T16:21:46.130Z,58.36
2023-04-16T16:24:13.800Z,57.14
2023-04-16T16:26:41.372Z,59.38
2023-04-16T16:29:09.110Z,59.73
2023-04-16T16:31:36.721Z,58.73
2023-04-16T16:34:04.320Z,59.01
2023-04-16T16:36:36.516Z,58.33
2023-04-16T16:39:04.677Z,58.44
2023-04-16T16:41:32.245Z,58.61
2023-04-16T16:43:59.704Z,58.84
2023-04-16T16:46:27.171Z,59.76
2023-04-16T16:48:54.698Z,58.54
2023-04-16T16:51:22.173Z,59.50
2023-04-16T16:53:50.954Z,60.51
2023-04-16T16:56:18.385Z,58.83
2023-04-16T16:58:46.260Z,59.42
2023-04-16T17:01:13.736Z,58.80
2023-04-16T17:03:42.095Z,59.88
2023-04-16T17:06:09.751Z,59.55
2023-04-16T17:08:37.210Z,59.83
2023-04-16T17:11:06.105Z,61.15
2023-04-16T17:13:34.365Z,60.50
2023-04-16T17:16:01.808Z,59.87
2023-04-16T17:18:29.316Z,62.07
2023-04-16T17:20:56.806Z,60.93
2023-04-16T17:23:24.335Z,63.80
2023-04-16T17:25:51.811Z,60.89
2023-04-16T17:28:21.357Z,60.15
2023-04-16T17:30:52.374Z,62.90
2023-04-16T17:33:20.391Z,62.87
2023-04-16T17:35:47.972Z,62.80
2023-04-16T17:38:15.492Z,62.93
2023-04-16T17:40:42.996Z,61.68
2023-04-16T17:43:10.515Z,60.70
2023-04-16T17:45:39.374Z,64.30
2023-04-16T17:48:07.304Z,62.14
2023-04-16T17:50:36.029Z,63.31
2023-04-16T17:53:04.532Z,61.93
2023-04-16T17:55:32.266Z,62.13
2023-04-16T17:58:00.282Z,61.67
2023-04-16T18:00:27.755Z,64.51
2023-04-16T18:02:58.277Z,63.85
2023-04-16T18:05:26.256Z,64.52
2023-04-16T18:07:55.260Z,64.49
2023-04-16T18:10:22.974Z,64.86
2023-04-16T18:12:50.618Z,63.48
2023-04-16T18:15:18.369Z,65.10
2023-04-16T18:17:46.060Z,64.39
2023-04-16T18:20:16.772Z,64.82
2023-04-16T18:22:44.231Z,66.18
2023-04-16T18:25:12.142Z,66.40
2023-04-16T18:27:39.686Z,65.85
2023-04-16T18:30:09.917Z,66.73
2023-04-16T18:33:04.191Z,65.01
2023-04-16T18:35:35.294Z,67.14
2023-04-16T18:38:02.764Z,66.97
2023-04-16T18:40:30.327Z,65.70
2023-04-16T18:42:57.820Z,65.17
2023-04-16T18:45:28.148Z,65.99
2023-04-16T18:47:58.486Z,66.59
2023-04-16T18:50:26.013Z,65.88
2023-04-16T18:52:54.821Z,67.26
2023-04-16T18:55:22.296Z,67.83
2023-04-16T18:57:49.913Z,67.85
2023-04-16T19:00:18.181Z,68.41
2023-04-16T19:02:45.801Z,68.93
2023-04-16T19:05:13.402Z,69.42
2023-04-16T19:07:41.669Z,69.67
2023-04-16T19:10:11.292Z,69.37
2023-04-16T19:12:38.851Z,69.84
2023-04-16T19:15:07.104Z,70.40
2023-04-16T19:17:34.607Z,70.89
2023-04-16T19:20:02.200Z,69.95
2023-04-16T19:22:29.698Z,69.85
2023-04-16T19:24:57.191Z,70.06
2023-04-16T19:27:26.117Z,70.10
2023-04-16T19:29:53.585Z,69.74
2023-04-16T19:32:21.080Z,70.07
2023-04-16T19:34:48.614Z,70.31
2023-04-16T19:37:16.226Z,69.63
2023-04-16T19:39:43.722Z,70.71
2023-04-16T19:42:11.193Z,70.55
2023-04-16T19:44:39.991Z,71.26
2023-04-16T19:47:07.489Z,70.62
2023-04-16T19:49:35.008Z,70.48
2023-04-16T19:52:02.601Z,69.88
2023-04-16T19:54:33.418Z,71.46
2023-04-16T19:57:01.505Z,70.14
2023-04-16T19:59:29.009Z,70.49
2023-04-16T20:01:57.851Z,70.62
2023-04-16T20:04:25.375Z,70.76
2023-04-16T20:06:53.531Z,71.34
2023-04-16T20:09:21.217Z,71.94
2023-04-16T20:11:48.677Z,72.99
2023-04-16T20:14:16.520Z,73.77
2023-04-16T20:16:44.513Z,72.92
2023-04-16T20:19:17.063Z,73.44
2023-04-16T20:21:45.406Z,76.12
2023-04-16T20:24:12.906Z,75.06
2023-04-16T20:26:40.449Z,76.11
2023-04-16T20:29:08.112Z,77.11
2023-04-16T20:31:35.632Z,77.54
2023-04-16T20:34:03.689Z,76.70
2023-04-16T20:36:32.584Z,76.77
2023-04-16T20:39:01.999Z,76.67
2023-04-16T20:41:30.083Z,77.45
2023-04-16T20:43:57.542Z,76.90
2023-04-16T20:46:25.030Z,76.65
2023-04-16T20:48:52.615Z,77.59
2023-04-16T20:51:21.423Z,77.09
2023-04-16T20:53:52.005Z,77.48
2023-04-16T20:56:19.550Z,78.41
2023-04-16T20:58:47.013Z,78.25
2023-04-16T21:01:14.611Z,78.57
2023-04-16T21:03:42.205Z,79.29
2023-04-16T21:06:12.580Z,78.81
2023-04-16T21:08:40.019Z,79.58
2023-04-16T21:11:08.863Z,79.29
2023-04-16T21:13:36.332Z,77.83
2023-04-16T21:16:04.821Z,79.26
2023-04-16T21:18:32.395Z,78.52
2023-04-16T21:20:59.987Z,78.13
2023-04-16T21:23:27.552Z,77.99
2023-04-16T21:25:56.188Z,77.85
2023-04-16T21:28:25.014Z,77.91
2023-04-16T21:30:52.528Z,78.18
2023-04-16T21:33:20.312Z,78.43
2023-04-16T21:35:51.992Z,79.06
2023-04-16T21:38:19.556Z,78.47
2023-04-16T21:40:50.370Z,79.24
2023-04-16T21:43:17.842Z,78.27
2023-04-16T21:45:46.765Z,78.39
2023-04-16T21:48:14.530Z,77.78
2023-04-16T21:50:41.948Z,77.66
2023-04-16T21:53:09.764Z,78.26
2023-04-16T21:55:38.970Z,77.65
2023-04-16T21:58:06.390Z,79.27
2023-04-16T22:00:34.095Z,78.08
2023-04-16T22:03:04.153Z,78.35
2023-04-16T22:05:33.133Z,78.33
2023-04-16T22:08:04.010Z,77.84
2023-04-16T22:10:39.245Z,78.18
2023-04-16T22:13:12.527Z,77.04
2023-04-16T22:15:40.478Z,78.40
2023-04-16T22:18:09.551Z,77.84
2023-04-16T22:20:39.731Z,77.77
2023-04-16T22:23:07.323Z,78.49
2023-04-16T22:25:34.800Z,78.09
2023-04-16T22:28:02.290Z,78.81
2023-04-16T22:30:29.727Z,78.48
2023-04-16T22:32:57.655Z,78.40
2023-04-16T22:35:26.478Z,77.77
2023-04-16T22:37:53.916Z,78.48
2023-04-16T22:40:21.429Z,78.31
2023-04-16T22:42:50.113Z,78.09
2023-04-16T22:45:17.710Z,77.63
2023-04-16T22:47:45.243Z,78.02
2023-04-16T22:50:12.972Z,77.76
2023-04-16T22:52:41.826Z,77.87
2023-04-16T22:55:09.933Z,77.73
2023-04-16T22:57:37.398Z,77.60
2023-04-16T23:00:09.546Z,77.97
2023-04-16T23:02:37.114Z,77.81
2023-04-16T23:05:04.989Z,78.07
2023-04-16T23:07:32.427Z,78.59
2023-04-16T23:10:01.264Z,77.84
2023-04-16T23:12:28.719Z,78.31
2023-04-16T23:14:56.312Z,79.50
2023-04-16T23:17:23.995Z,78.55
2023-04-16T23:19:51.428Z,78.60
2023-04-16T23:22:18.873Z,79.91
2023-04-16T23:24:46.306Z,78.08
2023-04-16T23:27:15.421Z,78.33
2023-04-16T23:29:42.870Z,79.23
2023-04-16T23:32:10.299Z,78.79
2023-04-16T23:34:37.745Z,79.31
2023-04-16T23:37:05.214Z,79.19
2023-04-16T23:39:32.636Z,79.25
2023-04-16T23:42:00.469Z,78.89
2023-04-16T23:44:29.375Z,80.85
2023-04-16T23:46:57.244Z,79.26
2023-04-16T23:49:25.317Z,78.33
2023-04-16T23:51:52.982Z,79.76
2023-04-16T23:54:21.302Z,79.70
2023-04-16T23:56:49.187Z,81.01
2023-04-16T23:59:16.827Z,79.52
